createdAt,value
2022-10-10T00:02:45.072Z,8.60
2022-10-10T00:09:45.660Z,8.50
2022-10-10T00:16:46.003Z,8.40
2022-10-10T00:23:46.545Z,8.30
2022-10-10T00:30:47.181Z,8.20
2022-10-10T00:37:47.373Z,8.20
2022-10-10T00:45:21.777Z,8.20
2022-10-10T00:52:22.262Z,8.10
2022-10-10T00:59:24.524Z,8.10
2022-10-10T01:06:24.797Z,8.10
2022-10-10T01:13:40.392Z,8.00
2022-10-10T01:20:43.483Z,8.00
2022-10-10T01:28:08.291Z,7.90
2022-10-10T01:35:24.004Z,7.90
2022-10-10T01:42:49.627Z,7.90
2022-10-10T01:49:55.415Z,7.80
2022-10-10T01:57:13.116Z,7.80
2022-10-10T02:04:33.626Z,7.80
2022-10-10T02:11:38.223Z,7.80
2022-10-10T02:18:38.981Z,7.70
2022-10-10T02:25:41.147Z,7.60
2022-10-10T02:32:49.589Z,7.60
2022-10-10T02:39:55.028Z,7.50
2022-10-10T02:46:55.647Z,7.50
2022-10-10T02:53:56.088Z,7.40
2022-10-10T03:00:56.619Z,7.40
2022-10-10T03:07:56.954Z,7.40
2022-10-10T03:14:57.298Z,7.50
2022-10-10T03:21:57.541Z,7.50
2022-10-10T03:28:58.029Z,7.50
2022-10-10T03:35:58.387Z,7.50
2022-10-10T03:42:58.950Z,7.40
2022-10-10T03:49:59.252Z,7.50
2022-10-10T03:56:59.831Z,7.50
2022-10-10T04:04:00.645Z,7.50
2022-10-10T04:11:01.141Z,7.40
2022-10-10T04:18:01.680Z,7.40
2022-10-10T04:25:02.037Z,7.40
2022-10-10T04:32:02.454Z,7.40
2022-10-10T04:39:03.276Z,7.30
2022-10-10T04:46:03.727Z,7.40
2022-10-10T04:53:04.017Z,7.40
2022-10-10T05:00:06.154Z,7.40
2022-10-10T05:07:06.682Z,7.40
2022-10-10T05:14:07.369Z,7.40
2022-10-10T05:21:07.804Z,7.40
2022-10-10T05:28:08.246Z,7.40
2022-10-10T05:35:09.156Z,7.30
2022-10-10T05:42:10.550Z,7.20
2022-10-10T05:49:11.036Z,7.20
2022-10-10T05:56:11.657Z,7.20
2022-10-10T06:03:14.126Z,7.20
2022-10-10T06:10:14.122Z,7.20
2022-10-10T06:17:14.465Z,7.20
2022-10-10T06:24:14.903Z,7.30
2022-10-10T06:31:15.301Z,7.40
2022-10-10T06:38:16.667Z,7.50
2022-10-10T06:45:16.919Z,7.70
2022-10-10T06:52:17.391Z,7.80
2022-10-10T06:59:18.044Z,8.00
2022-10-10T07:06:18.714Z,8.10
2022-10-10T07:13:19.950Z,8.40
2022-10-10T07:20:20.576Z,8.70
2022-10-10T07:27:21.170Z,9.10
2022-10-10T07:34:21.558Z,9.40
2022-10-10T07:41:22.449Z,9.70
2022-10-10T07:48:22.945Z,10.00
2022-10-10T07:55:23.310Z,10.30
2022-10-10T08:02:23.677Z,10.60
2022-10-10T08:09:24.264Z,10.90
2022-10-10T08:16:25.249Z,11.00
2022-10-10T08:23:26.045Z,11.30
2022-10-10T08:30:26.470Z,11.40
2022-10-10T08:37:30.382Z,11.60
2022-10-10T08:44:49.796Z,11.80
2022-10-10T08:52:22.724Z,11.90
2022-10-10T08:59:27.748Z,12.10
2022-10-10T09:06:47.842Z,12.30
2022-10-10T09:14:14.515Z,12.60
2022-10-10T09:21:24.024Z,13.00
2022-10-10T09:28:37.591Z,13.40
2022-10-10T09:35:39.301Z,13.70
2022-10-10T09:42:42.484Z,14.10
2022-10-10T09:49:46.376Z,14.40
2022-10-10T09:56:54.684Z,14.70
2022-10-10T10:04:23.784Z,15.10
2022-10-10T10:11:39.370Z,15.40
2022-10-10T10:18:45.400Z,15.80
2022-10-10T10:25:56.538Z,16.10
2022-10-10T10:33:09.905Z,16.30
2022-10-10T10:40:36.438Z,16.50
2022-10-10T10:47:54.271Z,16.70
2022-10-10T10:55:39.483Z,16.90
2022-10-10T11:05:15.822Z,17.30
2022-10-10T11:10:48.288Z,17.60
2022-10-10T11:18:00.672Z,17.90
2022-10-10T11:25:13.161Z,18.10
2022-10-10T11:32:26.371Z,18.30
2022-10-10T11:39:51.362Z,18.50
2022-10-10T11:47:18.942Z,18.70
2022-10-10T11:54:41.732Z,18.80
2022-10-10T12:01:48.090Z,18.90
2022-10-10T12:08:57.152Z,19.10
2022-10-10T12:16:02.743Z,19.30
2022-10-10T12:23:09.866Z,19.40
2022-10-10T12:30:14.723Z,19.40
2022-10-10T12:37:25.981Z,19.50
2022-10-10T12:44:35.164Z,19.70
2022-10-10T12:51:36.656Z,19.90
2022-10-10T12:58:39.927Z,20.30
2022-10-10T13:05:41.583Z,20.60
2022-10-10T13:12:41.752Z,20.60
2022-10-10T13:19:42.281Z,20.70
2022-10-10T13:26:52.230Z,21.10
2022-10-10T13:34:06.327Z,21.80
2022-10-10T13:41:07.018Z,22.10
2022-10-10T13:48:18.968Z,22.20
2022-10-10T13:55:27.280Z,22.40
2022-10-10T14:02:33.506Z,22.90
2022-10-10T14:09:53.680Z,23.90
2022-10-10T14:17:02.914Z,25.00
2022-10-10T14:24:03.460Z,24.90
2022-10-10T14:31:04.655Z,23.40
2022-10-10T14:38:05.761Z,22.40
2022-10-10T14:45:06.804Z,21.50
2022-10-10T14:52:08.551Z,21.00
2022-10-10T14:59:19.684Z,20.70
2022-10-10T15:06:55.425Z,20.40
2022-10-10T15:14:01.154Z,20.00
2022-10-10T15:21:07.110Z,19.70
2022-10-10T15:28:07.216Z,19.50
2022-10-10T15:35:12.725Z,19.20
2022-10-10T15:42:17.240Z,18.80
2022-10-10T15:49:19.198Z,18.40
2022-10-10T15:56:19.935Z,18.20
2022-10-10T16:03:20.073Z,17.90
2022-10-10T16:10:20.489Z,17.80
2022-10-10T16:17:23.635Z,17.70
2022-10-10T16:24:24.718Z,17.60
2022-10-10T16:31:25.521Z,17.50
2022-10-10T16:38:26.078Z,17.40
2022-10-10T16:45:26.615Z,17.30
2022-10-10T16:52:27.133Z,17.20
2022-10-10T16:59:28.828Z,17.10
2022-10-10T17:06:35.353Z,17.00
2022-10-10T17:13:41.155Z,16.90
2022-10-10T17:20:41.982Z,16.80
2022-10-10T17:27:43.386Z,16.70
2022-10-10T17:34:44.265Z,16.60
2022-10-10T17:41:45.804Z,16.50
2022-10-10T17:48:46.510Z,16.40
2022-10-10T17:55:46.990Z,16.30
2022-10-10T18:02:47.776Z,16.20
2022-10-10T18:09:51.563Z,16.10
2022-10-10T18:16:52.004Z,15.90
2022-10-10T18:23:53.431Z,15.70
2022-10-10T18:30:53.581Z,15.60
2022-10-10T18:37:54.267Z,15.60
2022-10-10T18:44:54.925Z,15.40
2022-10-10T18:51:55.279Z,15.10
2022-10-10T18:58:58.291Z,14.80
2022-10-10T19:05:58.677Z,14.50
2022-10-10T19:12:59.066Z,14.30
2022-10-10T19:19:59.580Z,14.20
2022-10-10T19:27:00.135Z,14.00
2022-10-10T19:34:01.222Z,13.80
2022-10-10T19:41:05.134Z,13.70
2022-10-10T19:48:06.161Z,13.60
2022-10-10T19:55:06.824Z,13.60
2022-10-10T20:02:07.195Z,13.60
2022-10-10T20:09:10.802Z,13.50
2022-10-10T20:16:13.623Z,13.50
2022-10-10T20:23:15.269Z,13.50
2022-10-10T20:30:15.800Z,13.40
2022-10-10T20:37:16.311Z,13.30
2022-10-10T20:44:16.949Z,13.10
2022-10-10T20:51:17.274Z,13.00
2022-10-10T20:58:17.703Z,12.80
2022-10-10T21:05:18.177Z,12.60
2022-10-10T21:12:18.535Z,12.30
2022-10-10T21:19:18.955Z,12.20
2022-10-10T21:26:21.106Z,11.90
2022-10-10T21:33:21.305Z,11.80
2022-10-10T21:40:21.655Z,11.60
2022-10-10T21:47:21.974Z,11.50
2022-10-10T21:54:22.193Z,11.40
2022-10-10T22:01:24.991Z,11.30
2022-10-10T22:08:25.668Z,11.00
2022-10-10T22:15:26.438Z,10.90
2022-10-10T22:22:26.836Z,10.70
2022-10-10T22:29:27.123Z,10.50
2022-10-10T22:36:27.546Z,10.40
2022-10-10T22:43:28.099Z,10.20
2022-10-10T22:50:28.691Z,9.90
2022-10-10T22:57:28.972Z,9.70
2022-10-10T23:04:29.931Z,9.50
2022-10-10T23:11:30.401Z,9.30
2022-10-10T23:18:31.029Z,9.20
2022-10-10T23:25:31.336Z,9.00
2022-10-10T23:32:31.704Z,8.90
2022-10-10T23:39:32.268Z,8.80
2022-10-10T23:46:32.800Z,8.60
2022-10-10T23:53:34.072Z,8.50
